Time;durP1;ratioP1;P1;durP2;ratioP2;P2;SDS_P1;SDS_P2;PMS_P1;PMS_P2;Temp;Humidity;BMP_temperature;BMP_pressure;BME280_temperature;BME280_humidity;BME280_pressure;Samples;Min_cycle;Max_cycle;Signal;HPM_P1;HPM_P2
2021/08/05 00:02:18;;;;;;;8.07;2.90;;;;;;;;;;5036439;28;20055;-61
2021/08/05 00:04:43;;;;;;;8.57;3.75;;;;;;;;;;5043402;28;20037;-61
2021/08/05 00:07:12;;;;;;;6.40;4.43;;;;;;;;;;5034389;28;20051;-62
2021/08/05 00:09:43;;;;;;;9.80;4.55;;;;;;;;;;5037208;28;20032;-62
2021/08/05 00:12:09;;;;;;;7.20;3.88;;;;;;;;;;5019370;28;20024;-62
2021/08/05 00:14:37;;;;;;;4.30;2.90;;;;;;;;;;5039214;28;20032;-62
2021/08/05 00:17:06;;;;;;;4.20;3.28;;;;;;;;;;5036659;28;20420;-61
2021/08/05 00:19:34;;;;;;;4.80;3.20;;;;;;;;;;5041395;28;20139;-62
2021/08/05 00:21:59;;;;;;;6.25;3.67;;;;;;;;;;5036987;28;20028;-62
2021/08/05 00:24:25;;;;;;;7.15;4.15;;;;;;;;;;5037228;28;20254;-62
2021/08/05 00:26:56;;;;;;;7.68;4.47;;;;;;;;;;5025946;28;20045;-62
2021/08/05 00:29:21;;;;;;;9.20;4.90;;;;;;;;;;5035936;28;20036;-62
2021/08/05 00:31:46;;;;;;;5.20;4.18;;;;;;;;;;5037280;28;20652;-62
2021/08/05 00:34:16;;;;;;;5.95;4.22;;;;;;;;;;5036001;28;20167;-62
2021/08/05 00:36:44;;;;;;;6.72;4.00;;;;;;;;;;5039534;28;20033;-61
2021/08/05 00:39:10;;;;;;;6.35;3.63;;;;;;;;;;5037090;28;20559;-61
2021/08/05 00:41:35;;;;;;;5.55;3.80;;;;;;;;;;5053844;28;20052;-62
2021/08/05 00:44:02;;;;;;;8.50;3.78;;;;;;;;;;5035210;28;20056;-62
2021/08/05 00:46:28;;;;;;;6.07;3.63;;;;;;;;;;5036567;28;20036;-61
2021/08/05 00:48:53;;;;;;;5.22;3.78;;;;;;;;;;5052666;28;20028;-62
2021/08/05 00:51:19;;;;;;;6.53;3.72;;;;;;;;;;5035439;28;20733;-61
2021/08/05 00:53:48;;;;;;;6.88;3.97;;;;;;;;;;5036849;28;20036;-61
2021/08/05 00:56:19;;;;;;;4.93;3.65;;;;;;;;;;5037616;28;20735;-61
2021/08/05 00:58:45;;;;;;;7.72;4.32;;;;;;;;;;5036985;28;20063;-62
2021/08/05 01:01:19;;;;;;;7.82;3.78;;;;;;;;;;5036259;28;20059;-62
2021/08/05 01:03:55;;;;;;;5.80;3.28;;;;;;;;;;5038945;28;20886;-61
2021/08/05 01:06:43;;;;;;;5.13;3.13;;;;;;;;;;5034276;28;20033;-61
2021/08/05 01:09:23;;;;;;;3.90;2.67;;;;;;;;;;5037162;28;20039;-62
2021/08/05 01:11:57;;;;;;;5.40;2.90;;;;;;;;;;5039112;28;20147;-61
2021/08/05 01:14:23;;;;;;;5.30;3.20;;;;;;;;;;5019880;28;20356;-61
2021/08/05 01:16:52;;;;;;;4.18;2.55;;;;;;;;;;5037494;28;20027;-61
2021/08/05 01:19:38;;;;;;;6.78;3.53;;;;;;;;;;5039097;28;20160;-61
2021/08/05 01:22:16;;;;;;;4.28;2.72;;;;;;;;;;5030329;28;20036;-62
2021/08/05 01:24:46;;;;;;;6.95;3.53;;;;;;;;;;5037121;28;20055;-61
2021/08/05 01:27:12;;;;;;;5.28;3.33;;;;;;;;;;5040566;28;20040;-61
2021/08/05 01:29:38;;;;;;;5.70;2.88;;;;;;;;;;5025381;28;20150;-61
2021/08/05 01:32:07;;;;;;;5.32;2.95;;;;;;;;;;5037443;28;20032;-62
2021/08/05 01:34:32;;;;;;;8.52;3.15;;;;;;;;;;5050341;28;20028;-61
2021/08/05 01:36:58;;;;;;;5.05;3.63;;;;;;;;;;5038484;28;20032;-62
2021/08/05 01:39:25;;;;;;;5.85;3.42;;;;;;;;;;5038798;28;20097;-61
2021/08/05 01:41:50;;;;;;;6.97;3.17;;;;;;;;;;5045477;28;20024;-62
2021/08/05 01:44:19;;;;;;;7.40;3.40;;;;;;;;;;5036659;28;20037;-62
2021/08/05 01:46:48;;;;;;;6.85;4.00;;;;;;;;;;5052418;28;20044;-61
2021/08/05 01:49:14;;;;;;;5.03;3.22;;;;;;;;;;5037504;28;20213;-62
2021/08/05 01:51:40;;;;;;;5.65;3.60;;;;;;;;;;5037759;28;20037;-61
2021/08/05 01:54:06;;;;;;;6.70;4.03;;;;;;;;;;5036013;28;20037;-61
2021/08/05 01:56:31;;;;;;;3.80;2.88;;;;;;;;;;5030179;28;20041;-61
2021/08/05 01:58:59;;;;;;;7.25;3.83;;;;;;;;;;5034728;28;20036;-62
2021/08/05 02:01:25;;;;;;;9.45;4.18;;;;;;;;;;5028136;28;20098;-61
2021/08/05 02:04:25;;;;;;;9.52;3.78;;;;;;;;;;5041050;28;20040;-61
2021/08/05 02:06:55;;;;;;;8.35;3.92;;;;;;;;;;5035984;28;20037;-61
2021/08/05 02:09:32;;;;;;;6.05;3.78;;;;;;;;;;5019414;28;20040;-61
2021/08/05 02:12:00;;;;;;;8.20;3.83;;;;;;;;;;5042689;28;20669;-61
2021/08/05 02:14:27;;;;;;;6.88;4.38;;;;;;;;;;5037625;28;20045;-61
2021/08/05 02:16:53;;;;;;;6.72;4.00;;;;;;;;;;5036480;28;20791;-61
2021/08/05 02:19:22;;;;;;;6.45;3.58;;;;;;;;;;5032564;28;20025;-61
2021/08/05 02:21:48;;;;;;;10.98;4.53;;;;;;;;;;5035417;28;20148;-61
2021/08/05 02:24:16;;;;;;;6.80;4.32;;;;;;;;;;5050553;28;20048;-61
2021/08/05 02:26:41;;;;;;;6.88;4.60;;;;;;;;;;5035961;28;20059;-61
2021/08/05 02:29:10;;;;;;;7.20;4.22;;;;;;;;;;5034289;28;20152;-61
2021/08/05 02:31:39;;;;;;;7.13;4.75;;;;;;;;;;5034859;28;20033;-61
2021/08/05 02:34:07;;;;;;;12.38;5.03;;;;;;;;;;5036400;28;20079;-61
2021/08/05 02:36:32;;;;;;;8.50;4.95;;;;;;;;;;5043488;28;20620;-61
2021/08/05 02:38:58;;;;;;;8.25;5.20;;;;;;;;;;5033445;28;20041;-60
2021/08/05 02:41:25;;;;;;;11.30;5.05;;;;;;;;;;5036634;28;20066;-61
2021/08/05 02:43:54;;;;;;;11.68;4.85;;;;;;;;;;5035132;28;20036;-61
2021/08/05 02:46:25;;;;;;;10.88;5.57;;;;;;;;;;5027178;28;20078;-61
2021/08/05 02:48:54;;;;;;;8.00;4.90;;;;;;;;;;5039968;28;20570;-61
2021/08/05 02:51:19;;;;;;;8.57;5.22;;;;;;;;;;5039823;28;20028;-61
2021/08/05 02:53:45;;;;;;;11.40;5.28;;;;;;;;;;5027113;28;20043;-62
2021/08/05 02:56:11;;;;;;;8.65;5.30;;;;;;;;;;5039776;28;20214;-61
2021/08/05 02:58:37;;;;;;;8.27;4.63;;;;;;;;;;5039750;28;20029;-61
2021/08/05 03:01:04;;;;;;;8.45;4.85;;;;;;;;;;5037712;28;20060;-60
2021/08/05 03:03:30;;;;;;;7.75;4.65;;;;;;;;;;5023953;28;20032;-60
2021/08/05 03:05:56;;;;;;;10.40;5.35;;;;;;;;;;5039588;28;20042;-61
2021/08/05 03:08:22;;;;;;;7.10;4.80;;;;;;;;;;5040169;28;20039;-61
2021/08/05 03:10:47;;;;;;;7.15;4.65;;;;;;;;;;5039806;28;20040;-61
2021/08/05 03:13:13;;;;;;;6.47;4.20;;;;;;;;;;5039858;28;20028;-61
2021/08/05 03:15:44;;;;;;;8.18;4.53;;;;;;;;;;5038083;28;20025;-61
2021/08/05 03:18:09;;;;;;;9.88;5.10;;;;;;;;;;5037656;28;20896;-61
2021/08/05 03:20:34;;;;;;;9.75;5.60;;;;;;;;;;5036694;28;20032;-61
2021/08/05 03:23:05;;;;;;;9.98;5.68;;;;;;;;;;5037903;28;20465;-61
2021/08/05 03:25:31;;;;;;;12.40;6.45;;;;;;;;;;5022950;28;20041;-62
2021/08/05 03:27:57;;;;;;;10.15;5.95;;;;;;;;;;5041094;28;20843;-63
2021/08/05 03:30:23;;;;;;;10.15;5.18;;;;;;;;;;5041161;28;20024;-63
2021/08/05 03:32:48;;;;;;;8.68;5.40;;;;;;;;;;5035420;28;20067;-60
2021/08/05 03:35:14;;;;;;;9.85;5.88;;;;;;;;;;5025367;28;20679;-61
2021/08/05 03:37:45;;;;;;;12.02;6.32;;;;;;;;;;5038918;28;20028;-61
2021/08/05 03:40:10;;;;;;;16.25;7.10;;;;;;;;;;5007480;28;20618;-61
2021/08/05 03:42:36;;;;;;;13.75;7.55;;;;;;;;;;5039613;28;20048;-61
2021/08/05 03:45:02;;;;;;;13.98;7.32;;;;;;;;;;5039784;28;20491;-61
2021/08/05 03:47:33;;;;;;;15.48;8.60;;;;;;;;;;5039435;28;20036;-61
2021/08/05 03:50:01;;;;;;;14.88;9.25;;;;;;;;;;5039420;28;20036;-61
2021/08/05 03:52:26;;;;;;;13.23;8.48;;;;;;;;;;5011992;28;20040;-61
2021/08/05 03:54:52;;;;;;;16.38;9.93;;;;;;;;;;5039111;28;21056;-61
2021/08/05 03:57:22;;;;;;;17.60;10.50;;;;;;;;;;5038224;28;20696;-61
2021/08/05 03:59:47;;;;;;;16.88;10.68;;;;;;;;;;5037438;28;20029;-61
2021/08/05 04:02:13;;;;;;;20.20;10.45;;;;;;;;;;5011735;28;20035;-62
2021/08/05 04:04:41;;;;;;;18.75;10.80;;;;;;;;;;5038340;28;20032;-62
2021/08/05 04:10:42;;;;;;;15.73;9.50;;;;;;;;;;5039197;28;20027;-63
2021/08/05 04:13:08;;;;;;;16.85;9.57;;;;;;;;;;5040058;28;20824;-62
2021/08/05 04:15:33;;;;;;;16.55;9.95;;;;;;;;;;5037114;28;21085;-62
2021/08/05 04:18:03;;;;;;;20.08;9.02;;;;;;;;;;5039041;28;20033;-62
2021/08/05 04:20:32;;;;;;;25.35;8.90;;;;;;;;;;5024832;28;20522;-62
2021/08/05 04:23:01;;;;;;;19.05;9.65;;;;;;;;;;5037400;28;20045;-61
2021/08/05 04:25:26;;;;;;;15.95;9.20;;;;;;;;;;5024961;28;20095;-61
2021/08/05 04:27:54;;;;;;;17.50;8.82;;;;;;;;;;5039518;28;20071;-61
2021/08/05 04:30:54;;;;;;;13.32;8.70;;;;;;;;;;5038178;28;20109;-62
2021/08/05 04:33:20;;;;;;;16.38;8.73;;;;;;;;;;5036085;28;20135;-62
2021/08/05 04:35:46;;;;;;;18.95;8.38;;;;;;;;;;5037768;28;20111;-61
2021/08/05 04:38:14;;;;;;;12.48;7.38;;;;;;;;;;5038652;28;20129;-62
2021/08/05 04:40:44;;;;;;;15.25;8.07;;;;;;;;;;5035905;28;20644;-61
2021/08/05 04:43:22;;;;;;;10.43;7.55;;;;;;;;;;5044404;28;20032;-61
2021/08/05 04:45:48;;;;;;;12.07;7.78;;;;;;;;;;5039823;28;20626;-62
2021/08/05 04:48:16;;;;;;;10.13;7.35;;;;;;;;;;5024698;28;20116;-62
2021/08/05 04:51:02;;;;;;;10.63;6.97;;;;;;;;;;5041338;28;20032;-62
2021/08/05 04:53:27;;;;;;;8.63;6.20;;;;;;;;;;5049865;28;20037;-62
2021/08/05 04:55:53;;;;;;;13.18;6.70;;;;;;;;;;5036790;28;20085;-62
2021/08/05 04:58:18;;;;;;;8.63;5.85;;;;;;;;;;5038433;28;20060;-62
2021/08/05 05:00:47;;;;;;;9.48;6.22;;;;;;;;;;5037743;28;20029;-62
2021/08/05 05:03:12;;;;;;;20.80;6.18;;;;;;;;;;5035528;28;20115;-62
2021/08/05 05:05:38;;;;;;;9.88;5.68;;;;;;;;;;5034975;28;20883;-63
2021/08/05 05:08:14;;;;;;;6.60;4.78;;;;;;;;;;5026389;28;20044;-62
2021/08/05 05:10:40;;;;;;;6.30;4.65;;;;;;;;;;5038468;28;20033;-62
2021/08/05 05:13:24;;;;;;;8.13;5.55;;;;;;;;;;5037318;28;20779;-62
2021/08/05 05:15:51;;;;;;;10.02;5.85;;;;;;;;;;5038614;28;20183;-62
2021/08/05 05:18:18;;;;;;;7.85;5.40;;;;;;;;;;5040931;28;20055;-62
2021/08/05 05:20:44;;;;;;;9.52;5.35;;;;;;;;;;5039971;28;20024;-62
2021/08/05 05:23:20;;;;;;;10.07;5.43;;;;;;;;;;5035458;28;20080;-62
2021/08/05 05:25:46;;;;;;;8.77;5.45;;;;;;;;;;5019971;28;20653;-62
2021/08/05 05:28:12;;;;;;;7.32;5.18;;;;;;;;;;5035918;28;20025;-63
2021/08/05 05:30:52;;;;;;;10.05;5.40;;;;;;;;;;5037885;28;20427;-62
2021/08/05 05:33:20;;;;;;;8.48;4.97;;;;;;;;;;5035821;28;20578;-62
2021/08/05 05:35:48;;;;;;;7.00;4.93;;;;;;;;;;5034346;28;20744;-62
2021/08/05 05:38:14;;;;;;;10.82;5.05;;;;;;;;;;5036934;28;20067;-62
2021/08/05 05:40:41;;;;;;;9.27;5.63;;;;;;;;;;5037321;28;20025;-62
2021/08/05 05:43:10;;;;;;;9.88;5.03;;;;;;;;;;5036327;28;20138;-62
2021/08/05 05:45:39;;;;;;;10.10;5.50;;;;;;;;;;5035977;28;20074;-62
2021/08/05 05:48:06;;;;;;;10.02;5.65;;;;;;;;;;5024760;28;21301;-62
2021/08/05 05:50:34;;;;;;;8.30;4.80;;;;;;;;;;5027600;28;20033;-62
2021/08/05 05:53:02;;;;;;;9.18;5.93;;;;;;;;;;5035754;28;20029;-61
2021/08/05 05:55:27;;;;;;;9.63;6.00;;;;;;;;;;5050613;28;20458;-62
2021/08/05 05:57:57;;;;;;;11.55;5.85;;;;;;;;;;5050185;28;20040;-61
2021/08/05 06:00:23;;;;;;;10.25;6.30;;;;;;;;;;5026444;28;20059;-62
2021/08/05 06:02:48;;;;;;;10.75;6.20;;;;;;;;;;5035947;28;20104;-62
2021/08/05 06:05:14;;;;;;;10.35;5.55;;;;;;;;;;5038704;28;20117;-61
2021/08/05 06:07:50;;;;;;;9.70;5.38;;;;;;;;;;5033647;28;20016;-62
2021/08/05 06:10:17;;;;;;;9.65;5.45;;;;;;;;;;5033208;28;20036;-62
2021/08/05 06:12:42;;;;;;;8.45;5.93;;;;;;;;;;5035309;28;20124;-62
2021/08/05 06:15:22;;;;;;;11.52;6.18;;;;;;;;;;5017864;28;20036;-62
2021/08/05 06:17:50;;;;;;;9.85;5.55;;;;;;;;;;5019870;28;20080;-62
2021/08/05 06:20:19;;;;;;;13.43;6.00;;;;;;;;;;5038426;28;20150;-62
2021/08/05 06:22:48;;;;;;;8.68;5.63;;;;;;;;;;5035627;28;20041;-62
2021/08/05 06:25:17;;;;;;;11.82;5.28;;;;;;;;;;5041146;28;20141;-62
2021/08/05 06:30:57;;;;;;;9.40;5.30;;;;;;;;;;5037727;28;20059;-61
2021/08/05 06:33:22;;;;;;;10.95;5.65;;;;;;;;;;5034393;28;22014;-62
2021/08/05 06:35:51;;;;;;;10.25;5.72;;;;;;;;;;5037291;28;20104;-62
2021/08/05 06:38:16;;;;;;;12.45;5.70;;;;;;;;;;5032214;28;20476;-62
2021/08/05 06:40:44;;;;;;;9.52;5.22;;;;;;;;;;5034977;28;20097;-63
2021/08/05 06:43:14;;;;;;;10.02;6.18;;;;;;;;;;5037865;28;20144;-63
2021/08/05 06:45:39;;;;;;;12.95;5.70;;;;;;;;;;5034950;28;20055;-62
2021/08/05 06:48:05;;;;;;;10.07;5.28;;;;;;;;;;5024900;28;20189;-62
2021/08/05 06:50:31;;;;;;;8.10;4.95;;;;;;;;;;5036393;28;20067;-62
2021/08/05 06:52:58;;;;;;;9.55;5.00;;;;;;;;;;5020796;28;20039;-62
2021/08/05 06:55:24;;;;;;;7.05;4.18;;;;;;;;;;5035127;28;20042;-64
2021/08/05 06:57:49;;;;;;;8.98;5.18;;;;;;;;;;5036891;28;20047;-63
2021/08/05 07:00:15;;;;;;;6.97;3.88;;;;;;;;;;5033856;28;20500;-63
2021/08/05 07:02:41;;;;;;;5.95;3.92;;;;;;;;;;5036764;28;20235;-62
2021/08/05 07:05:09;;;;;;;7.63;3.05;;;;;;;;;;5035905;28;20047;-63
2021/08/05 07:07:35;;;;;;;3.95;2.97;;;;;;;;;;5034960;28;20341;-63
2021/08/05 07:10:38;;;;;;;4.65;2.80;;;;;;;;;;5036059;28;20718;-63
2021/08/05 07:13:05;;;;;;;6.00;2.90;;;;;;;;;;5043190;28;20036;-63
2021/08/05 07:19:05;;;;;;;5.30;3.22;;;;;;;;;;5036200;28;20043;-64
2021/08/05 07:21:31;;;;;;;5.47;2.83;;;;;;;;;;5033137;28;20037;-62
2021/08/05 07:24:13;;;;;;;4.75;3.05;;;;;;;;;;5040809;28;20044;-62
2021/08/05 07:26:39;;;;;;;5.57;3.58;;;;;;;;;;5043099;28;20111;-63
2021/08/05 07:29:05;;;;;;;6.32;3.38;;;;;;;;;;5035981;28;20371;-62
2021/08/05 07:31:32;;;;;;;4.68;3.30;;;;;;;;;;5033886;28;20986;-63
2021/08/05 07:34:12;;;;;;;5.00;3.30;;;;;;;;;;5038606;28;21248;-63
2021/08/05 07:36:38;;;;;;;5.07;2.55;;;;;;;;;;5040351;28;20032;-63
2021/08/05 07:39:06;;;;;;;5.93;2.72;;;;;;;;;;5037883;28;20033;-63
2021/08/05 07:41:33;;;;;;;5.18;2.72;;;;;;;;;;5020969;28;20600;-63
2021/08/05 07:47:35;;;;;;;2.40;2.05;;;;;;;;;;5040249;28;20036;-63
2021/08/05 07:50:05;;;;;;;3.58;2.33;;;;;;;;;;5054128;28;20132;-63
2021/08/05 07:52:35;;;;;;;2.80;1.63;;;;;;;;;;5036881;28;20057;-64
2021/08/05 07:55:04;;;;;;;5.95;2.30;;;;;;;;;;5023132;28;20750;-63
2021/08/05 07:57:31;;;;;;;6.47;1.95;;;;;;;;;;5027942;28;20033;-64
2021/08/05 07:59:56;;;;;;;2.50;1.83;;;;;;;;;;5039921;28;20033;-64
2021/08/05 08:02:22;;;;;;;5.32;1.63;;;;;;;;;;5034313;28;20052;-64
2021/08/05 08:04:47;;;;;;;2.72;1.40;;;;;;;;;;5039092;28;20056;-64
2021/08/05 08:07:22;;;;;;;3.10;1.65;;;;;;;;;;5038789;28;20033;-64
2021/08/05 08:09:49;;;;;;;2.80;1.75;;;;;;;;;;5039842;28;20040;-63
2021/08/05 08:12:17;;;;;;;1.95;1.50;;;;;;;;;;5036356;28;20064;-63
2021/08/05 08:14:45;;;;;;;9.48;1.63;;;;;;;;;;5038975;28;20150;-63
2021/08/05 08:17:13;;;;;;;2.33;1.50;;;;;;;;;;5040008;28;20047;-63
2021/08/05 08:19:39;;;;;;;3.40;1.50;;;;;;;;;;5037901;28;20153;-64
2021/08/05 08:22:07;;;;;;;2.00;1.80;;;;;;;;;;5035397;28;20421;-63
2021/08/05 08:24:33;;;;;;;3.85;2.00;;;;;;;;;;5034951;28;20040;-62
2021/08/05 08:26:58;;;;;;;2.95;1.73;;;;;;;;;;5053000;28;22076;-63
2021/08/05 08:29:24;;;;;;;3.13;1.60;;;;;;;;;;5036205;28;20143;-64
2021/08/05 08:31:49;;;;;;;1.85;1.48;;;;;;;;;;5038599;28;20279;-64
2021/08/05 08:34:15;;;;;;;3.53;1.67;;;;;;;;;;5036953;28;20033;-64
2021/08/05 08:36:44;;;;;;;4.00;1.73;;;;;;;;;;5039442;28;20085;-63
2021/08/05 08:39:09;;;;;;;2.83;1.58;;;;;;;;;;5037753;28;20468;-64
2021/08/05 08:41:36;;;;;;;1.98;1.73;;;;;;;;;;5039621;28;20033;-64
2021/08/05 08:44:02;;;;;;;4.88;2.28;;;;;;;;;;5052646;28;20525;-64
2021/08/05 08:46:31;;;;;;;1.70;1.60;;;;;;;;;;5037964;28;20068;-64
2021/08/05 08:48:57;;;;;;;2.17;1.27;;;;;;;;;;5039301;28;22309;-63
2021/08/05 08:54:58;;;;;;;2.28;1.33;;;;;;;;;;5038509;28;20438;-63
2021/08/05 08:57:29;;;;;;;3.63;1.52;;;;;;;;;;5035829;28;20108;-63
2021/08/05 08:59:56;;;;;;;3.45;1.15;;;;;;;;;;5038079;28;20040;-62
2021/08/05 09:02:22;;;;;;;1.30;1.10;;;;;;;;;;5045149;28;20110;-62
2021/08/05 09:08:24;;;;;;;1.67;1.20;;;;;;;;;;5036631;28;20146;-63
2021/08/05 09:10:53;;;;;;;2.38;1.10;;;;;;;;;;5045935;28;20112;-63
2021/08/05 09:13:21;;;;;;;1.48;1.13;;;;;;;;;;5038273;28;20058;-62
2021/08/05 09:15:50;;;;;;;1.80;1.30;;;;;;;;;;5027387;28;20543;-64
2021/08/05 09:18:26;;;;;;;3.83;1.23;;;;;;;;;;5052969;28;20471;-63
2021/08/05 09:21:28;;;;;;;1.20;1.10;;;;;;;;;;5038669;28;20912;-63
2021/08/05 09:23:55;;;;;;;3.95;1.60;;;;;;;;;;4962472;28;20126;-63
2021/08/05 09:26:28;;;;;;;3.17;1.58;;;;;;;;;;5003082;28;20411;-63
2021/08/05 09:28:53;;;;;;;;;;;;;;;;;;5052116;28;20040;-64
2021/08/05 09:31:19;;;;;;;2.92;1.70;;;;;;;;;;5039038;28;19917;-64
2021/08/05 09:33:47;;;;;;;2.55;1.75;;;;;;;;;;5036699;28;20029;-64
2021/08/05 09:36:29;;;;;;;4.40;1.17;;;;;;;;;;5038273;28;20480;-64
2021/08/05 09:42:33;;;;;;;3.30;1.75;;;;;;;;;;5035301;28;20182;-64
2021/08/05 09:45:02;;;;;;;3.90;1.40;;;;;;;;;;5038730;28;20567;-64
2021/08/05 09:47:43;;;;;;;2.72;2.15;;;;;;;;;;5038193;28;20034;-63
2021/08/05 09:50:09;;;;;;;2.63;1.60;;;;;;;;;;5044155;28;20033;-63
2021/08/05 09:52:35;;;;;;;3.13;1.70;;;;;;;;;;5036755;28;20028;-62
2021/08/05 09:55:03;;;;;;;2.00;1.27;;;;;;;;;;5025686;28;20033;-63
2021/08/05 09:57:36;;;;;;;2.60;1.48;;;;;;;;;;5037620;28;20043;-64
2021/08/05 10:00:08;;;;;;;1.33;1.23;;;;;;;;;;5034596;28;22004;-64
2021/08/05 10:02:50;;;;;;;2.75;1.05;;;;;;;;;;5035859;28;20056;-63
2021/08/05 10:05:20;;;;;;;1.30;1.17;;;;;;;;;;5016934;28;20084;-63
2021/08/05 10:07:59;;;;;;;3.50;1.40;;;;;;;;;;5036585;28;20051;-63
2021/08/05 10:10:48;;;;;;;2.95;1.30;;;;;;;;;;5043412;28;20033;-63
2021/08/05 10:13:35;;;;;;;3.00;1.15;;;;;;;;;;5032084;28;20053;-63
2021/08/05 10:16:04;;;;;;;0.90;0.90;;;;;;;;;;5026825;28;20084;-63
2021/08/05 10:19:06;;;;;;;2.53;1.35;;;;;;;;;;5025928;28;20025;-63
2021/08/05 10:21:37;;;;;;;2.67;1.20;;;;;;;;;;5036179;28;20043;-64
2021/08/05 10:24:03;;;;;;;1.45;1.30;;;;;;;;;;5034809;28;22120;-62
2021/08/05 10:27:06;;;;;;;6.65;1.90;;;;;;;;;;5034482;28;20199;-63
2021/08/05 10:29:37;;;;;;;2.97;1.63;;;;;;;;;;5035975;28;20041;-65
2021/08/05 10:32:04;;;;;;;1.92;1.48;;;;;;;;;;5042835;28;20037;-63
2021/08/05 10:34:31;;;;;;;2.53;1.40;;;;;;;;;;5041790;28;20034;-64
2021/08/05 10:37:13;;;;;;;2.00;1.20;;;;;;;;;;5033814;28;20071;-64
2021/08/05 10:39:56;;;;;;;1.10;1.00;;;;;;;;;;5020654;28;20094;-64
2021/08/05 10:46:16;;;;;;;1.95;0.90;;;;;;;;;;5023146;28;20126;-64
2021/08/05 10:48:42;;;;;;;2.00;0.70;;;;;;;;;;5005671;28;20121;-64
2021/08/05 10:51:11;;;;;;;0.70;0.70;;;;;;;;;;5006162;28;20025;-64
2021/08/05 10:53:41;;;;;;;1.70;0.70;;;;;;;;;;5022908;28;20032;-64
2021/08/05 10:56:30;;;;;;;0.95;0.80;;;;;;;;;;4982810;28;20148;-63
2021/08/05 10:59:09;;;;;;;3.33;0.80;;;;;;;;;;5023081;28;20296;-63
2021/08/05 11:01:46;;;;;;;0.65;0.50;;;;;;;;;;5022040;28;20567;-63
2021/08/05 11:04:46;;;;;;;2.33;0.80;;;;;;;;;;4988040;28;20052;-63
2021/08/05 11:07:20;;;;;;;1.17;0.77;;;;;;;;;;5025754;28;20029;-63
2021/08/05 11:09:46;;;;;;;0.68;0.68;;;;;;;;;;5008823;28;20574;-63
2021/08/05 11:12:35;;;;;;;1.27;0.82;;;;;;;;;;5052437;28;20036;-63
2021/08/05 11:15:00;;;;;;;0.68;0.60;;;;;;;;;;5039864;28;20041;-62
2021/08/05 11:17:32;;;;;;;2.45;1.05;;;;;;;;;;5039046;28;20047;-63
2021/08/05 11:20:13;;;;;;;0.98;0.70;;;;;;;;;;5047037;28;20041;-63
2021/08/05 11:22:39;;;;;;;2.85;0.85;;;;;;;;;;5036094;28;20456;-63
2021/08/05 11:25:05;;;;;;;3.28;0.57;;;;;;;;;;5041383;28;20106;-62
2021/08/05 11:27:31;;;;;;;0.70;0.70;;;;;;;;;;5055072;28;20727;-62
2021/08/05 11:29:59;;;;;;;2.22;0.73;;;;;;;;;;5037047;28;20033;-63
2021/08/05 11:32:24;;;;;;;1.80;0.73;;;;;;;;;;5024234;28;21985;-64
2021/08/05 11:34:57;;;;;;;1.10;0.73;;;;;;;;;;5039727;28;20021;-64
2021/08/05 11:37:28;;;;;;;0.85;0.80;;;;;;;;;;5036951;28;20036;-63
2021/08/05 11:39:55;;;;;;;1.17;0.85;;;;;;;;;;5020279;28;20029;-64
2021/08/05 11:42:21;;;;;;;0.50;0.40;;;;;;;;;;5052919;28;20037;-64
2021/08/05 11:44:56;;;;;;;1.15;0.57;;;;;;;;;;5054156;28;20107;-62
2021/08/05 11:47:24;;;;;;;0.65;0.40;;;;;;;;;;5040688;28;20890;-63
2021/08/05 11:49:57;;;;;;;1.00;0.40;;;;;;;;;;5039000;28;20116;-63
2021/08/05 11:52:28;;;;;;;0.68;0.68;;;;;;;;;;5040941;28;20029;-62
2021/08/05 11:54:57;;;;;;;0.52;0.22;;;;;;;;;;5037897;28;20040;-63
2021/08/05 11:57:24;;;;;;;2.15;0.50;;;;;;;;;;5037600;28;20035;-62
2021/08/05 11:59:50;;;;;;;2.85;0.70;;;;;;;;;;5029373;28;20091;-62
2021/08/05 12:02:17;;;;;;;1.48;0.63;;;;;;;;;;5020794;28;20120;-62
2021/08/05 12:04:43;;;;;;;0.80;0.70;;;;;;;;;;5036978;28;20029;-62
2021/08/05 12:07:19;;;;;;;0.82;0.55;;;;;;;;;;5039384;28;20029;-63
2021/08/05 12:10:04;;;;;;;0.70;0.55;;;;;;;;;;5039775;28;20504;-62
2021/08/05 12:12:37;;;;;;;0.82;0.40;;;;;;;;;;5039568;28;21210;-62
2021/08/05 12:15:06;;;;;;;0.73;0.50;;;;;;;;;;5040314;28;20167;-62
2021/08/05 12:17:42;;;;;;;0.70;0.60;;;;;;;;;;5020861;28;21907;-62
2021/08/05 12:20:10;;;;;;;0.63;0.60;;;;;;;;;;5028588;28;20122;-62
2021/08/05 12:22:39;;;;;;;0.65;0.65;;;;;;;;;;5039431;28;20912;-63
2021/08/05 12:25:08;;;;;;;0.60;0.45;;;;;;;;;;5037800;28;20044;-63
2021/08/05 12:27:33;;;;;;;1.85;0.52;;;;;;;;;;5040402;28;20037;-62
2021/08/05 12:30:03;;;;;;;0.82;0.70;;;;;;;;;;5036906;28;20159;-63
2021/08/05 12:32:29;;;;;;;0.95;0.50;;;;;;;;;;5025053;28;20388;-63
2021/08/05 12:34:55;;;;;;;0.70;0.50;;;;;;;;;;5027464;28;20041;-62
2021/08/05 12:40:56;;;;;;;0.70;0.70;;;;;;;;;;5036636;28;20079;-63
2021/08/05 12:43:24;;;;;;;2.70;0.50;;;;;;;;;;5035255;28;20037;-63
2021/08/05 12:45:55;;;;;;;1.52;0.68;;;;;;;;;;5037101;28;20033;-63
2021/08/05 12:48:21;;;;;;;1.20;0.47;;;;;;;;;;5043320;28;20032;-63
2021/08/05 12:50:50;;;;;;;0.50;0.50;;;;;;;;;;5033868;28;20036;-63
2021/08/05 12:53:26;;;;;;;0.93;0.60;;;;;;;;;;5023175;28;21347;-65
2021/08/05 12:55:52;;;;;;;3.72;0.60;;;;;;;;;;5045829;28;20048;-62
2021/08/05 12:58:24;;;;;;;3.08;0.70;;;;;;;;;;5038810;28;20028;-63
2021/08/05 13:01:11;;;;;;;0.57;0.57;;;;;;;;;;5040139;28;20024;-62
2021/08/05 13:03:38;;;;;;;0.55;0.52;;;;;;;;;;5052258;28;20489;-63
2021/08/05 13:06:04;;;;;;;0.70;0.70;;;;;;;;;;5037070;28;20169;-64
2021/08/05 13:08:31;;;;;;;1.67;0.50;;;;;;;;;;5037156;28;21211;-63
2021/08/05 13:10:57;;;;;;;4.50;0.60;;;;;;;;;;5027629;28;20028;-64
2021/08/05 13:13:41;;;;;;;2.03;0.68;;;;;;;;;;5038152;28;20036;-63
2021/08/05 13:16:22;;;;;;;1.48;0.40;;;;;;;;;;5035309;28;20134;-63
2021/08/05 13:22:01;;;;;;;0.50;0.50;;;;;;;;;;5038764;28;20063;-63
2021/08/05 13:24:31;;;;;;;1.23;0.80;;;;;;;;;;5035184;28;20064;-64
2021/08/05 13:26:58;;;;;;;0.90;0.70;;;;;;;;;;5037957;28;20051;-63
2021/08/05 13:29:36;;;;;;;0.73;0.73;;;;;;;;;;5035548;28;20175;-63
2021/08/05 13:35:47;;;;;;;0.93;0.68;;;;;;;;;;5037614;28;20059;-63
2021/08/05 13:38:12;;;;;;;2.25;0.50;;;;;;;;;;5033677;28;20060;-64
2021/08/05 13:40:38;;;;;;;1.77;0.90;;;;;;;;;;5034961;28;20509;-63
2021/08/05 13:43:08;;;;;;;1.02;0.40;;;;;;;;;;5037713;28;20029;-63
2021/08/05 13:45:34;;;;;;;0.65;0.65;;;;;;;;;;5035648;28;20043;-64
2021/08/05 13:47:59;;;;;;;0.60;0.60;;;;;;;;;;5039029;28;20041;-62
2021/08/05 13:50:26;;;;;;;1.42;0.73;;;;;;;;;;5036884;28;20162;-63
2021/08/05 13:52:53;;;;;;;0.50;0.50;;;;;;;;;;5034009;28;20032;-63
2021/08/05 13:55:20;;;;;;;0.60;0.52;;;;;;;;;;5035171;28;20028;-62
2021/08/05 13:57:46;;;;;;;1.35;0.60;;;;;;;;;;5036228;28;20075;-64
2021/08/05 14:00:12;;;;;;;0.63;0.50;;;;;;;;;;5035464;28;20051;-63
2021/08/05 14:02:46;;;;;;;1.50;0.50;;;;;;;;;;5026112;28;20037;-64
2021/08/05 14:05:14;;;;;;;0.98;0.50;;;;;;;;;;5039512;28;20032;-63
2021/08/05 14:07:42;;;;;;;0.50;0.50;;;;;;;;;;5035383;28;20100;-64
2021/08/05 14:10:32;;;;;;;0.57;0.57;;;;;;;;;;5034737;28;20120;-63
2021/08/05 14:13:00;;;;;;;0.40;0.40;;;;;;;;;;5050959;28;20065;-63
2021/08/05 14:19:23;;;;;;;0.90;0.60;;;;;;;;;;5037713;28;20031;-63
2021/08/05 14:21:51;;;;;;;1.48;0.60;;;;;;;;;;5051127;28;20041;-63
2021/08/05 14:24:19;;;;;;;0.60;0.50;;;;;;;;;;5036035;28;20075;-63
2021/08/05 14:26:45;;;;;;;2.28;0.80;;;;;;;;;;5037241;28;20047;-63
2021/08/05 14:29:10;;;;;;;0.85;0.73;;;;;;;;;;5024502;28;20025;-63
2021/08/05 14:31:39;;;;;;;2.22;0.68;;;;;;;;;;5036039;28;20036;-65
2021/08/05 14:34:05;;;;;;;0.70;0.70;;;;;;;;;;5034630;28;20592;-64
2021/08/05 14:36:34;;;;;;;2.50;0.75;;;;;;;;;;5043995;28;20123;-65
2021/08/05 14:38:59;;;;;;;2.15;0.88;;;;;;;;;;5035096;28;20027;-63
2021/08/05 14:41:25;;;;;;;0.93;0.63;;;;;;;;;;5034846;28;20036;-64
2021/08/05 14:43:55;;;;;;;0.93;0.65;;;;;;;;;;5035118;28;20024;-63
2021/08/05 14:46:20;;;;;;;1.35;0.80;;;;;;;;;;5036735;28;20112;-63
2021/08/05 14:48:46;;;;;;;1.88;0.93;;;;;;;;;;5041866;28;20029;-63
2021/08/05 14:51:12;;;;;;;1.42;0.95;;;;;;;;;;5033775;28;20032;-63
2021/08/05 14:53:37;;;;;;;0.88;0.88;;;;;;;;;;5033875;28;20504;-63
2021/08/05 14:59:13;;;;;;;1.25;0.65;;;;;;;;;;5030898;28;20060;-65
2021/08/05 15:05:16;;;;;;;6.63;1.43;;;;;;;;;;5035983;28;20139;-64
2021/08/05 15:07:42;;;;;;;3.45;2.28;;;;;;;;;;5050777;28;20090;-65
2021/08/05 15:10:10;;;;;;;1.75;1.05;;;;;;;;;;5033812;28;20033;-62
2021/08/05 15:12:38;;;;;;;4.80;1.15;;;;;;;;;;5035238;28;20025;-63
2021/08/05 15:15:04;;;;;;;0.80;0.80;;;;;;;;;;5035389;28;20037;-63
2021/08/05 15:17:33;;;;;;;1.13;0.98;;;;;;;;;;5035793;28;20499;-63
2021/08/05 15:19:58;;;;;;;0.98;0.88;;;;;;;;;;5035908;28;20086;-63
2021/08/05 15:22:24;;;;;;;1.40;0.80;;;;;;;;;;5031736;28;20151;-65
2021/08/05 15:24:49;;;;;;;4.32;1.15;;;;;;;;;;5033438;28;20119;-64
2021/08/05 15:27:15;;;;;;;2.15;0.90;;;;;;;;;;5033902;28;20558;-63
2021/08/05 15:33:21;;;;;;;2.13;0.83;;;;;;;;;;5033998;28;20103;-64
2021/08/05 15:35:51;;;;;;;2.35;1.20;;;;;;;;;;5050824;28;20752;-64
2021/08/05 15:38:39;;;;;;;3.97;1.35;;;;;;;;;;5038745;28;20029;-64
2021/08/05 15:41:38;;;;;;;0.95;0.82;;;;;;;;;;5033536;28;20037;-62
2021/08/05 15:44:04;;;;;;;1.38;1.25;;;;;;;;;;5024107;28;20741;-63
2021/08/05 15:46:30;;;;;;;3.00;1.20;;;;;;;;;;5042923;28;20136;-62
2021/08/05 15:48:58;;;;;;;1.15;0.90;;;;;;;;;;5032350;28;20032;-63